Andover, Virginia
Current Conditions -  °F | °C
As of 9:15 AM on Wednesday 28 Jan 2015 (Local Time) from KLNP Reporting Station
Light Snow Light Snow  
Wind Chill: 11°   Ceiling: 500
Heat Index: 18°   Visibility: 10mi
Dew Point: 18°   Wind: 5mph
Humidity: 100%   Direction: 30°NNE
Pressure: 30.23"   Gusts: NA
Location:  36.92°N, 82.8°W
Report Text: KLNP 281415Z AUTO 03004KT 10SM -SN OVC005 M08/M08 A3023 RMK AO2
Loading
Personal Weather Stations






























Interactive Weather Map New forecast layout! Learn more

10-Day Weather Forecast

Advertisements
Track Severe Weather on mobile